createdAt,value
2023-02-02T00:01:50.624Z,18.70
2023-02-02T00:05:54.505Z,20.10
2023-02-02T00:09:59.647Z,17.70
2023-02-02T00:14:05.675Z,22.60
2023-02-02T00:18:08.192Z,31.10
2023-02-02T00:22:12.255Z,21.70
2023-02-02T00:26:16.275Z,23.20
2023-02-02T00:30:20.279Z,18.30
2023-02-02T00:34:27.850Z,21.00
2023-02-02T00:38:30.274Z,22.20
2023-02-02T00:42:35.347Z,22.70
2023-02-02T00:46:39.199Z,17.20
2023-02-02T00:50:43.068Z,24.10
2023-02-02T00:54:47.960Z,24.30
2023-02-02T00:58:32.700Z,20.30
2023-02-02T01:02:36.844Z,15.20
2023-02-02T01:06:41.837Z,19.00
2023-02-02T01:10:46.083Z,24.70
2023-02-02T01:14:49.944Z,16.40
2023-02-02T01:18:54.425Z,17.50
2023-02-02T01:22:57.395Z,18.00
2023-02-02T01:27:01.329Z,20.90
2023-02-02T01:31:06.458Z,19.20
2023-02-02T01:35:04.056Z,13.20
2023-02-02T01:39:02.129Z,13.70
2023-02-02T01:43:06.257Z,20.10
2023-02-02T01:47:13.329Z,15.40
2023-02-02T01:51:19.398Z,16.90
2023-02-02T01:55:23.905Z,16.60
2023-02-02T01:59:28.012Z,20.10
2023-02-02T02:03:23.861Z,19.10
2023-02-02T02:06:59.939Z,11.10
2023-02-02T02:10:19.522Z,22.00
2023-02-02T02:14:13.222Z,24.80
2023-02-02T02:18:26.392Z,19.20
2023-02-02T02:22:21.821Z,18.40
2023-02-02T02:26:56.067Z,21.80
2023-02-02T02:30:43.687Z,17.00
2023-02-02T02:34:50.123Z,24.20
2023-02-02T02:38:58.993Z,15.70
2023-02-02T02:42:55.805Z,15.60
2023-02-02T02:46:23.236Z,17.90
2023-02-02T02:49:47.309Z,15.10
2023-02-02T02:53:41.520Z,17.40
2023-02-02T02:57:16.238Z,11.10
2023-02-02T03:01:20.101Z,16.20
2023-02-02T03:05:19.271Z,15.10
2023-02-02T03:08:58.054Z,15.50
2023-02-02T03:12:44.397Z,17.50
2023-02-02T03:16:23.083Z,14.30
2023-02-02T03:19:50.697Z,13.60
2023-02-02T03:23:34.727Z,11.80
2023-02-02T03:30:35.871Z,12.00
2023-02-02T03:34:20.082Z,14.70
2023-02-02T03:37:46.153Z,14.20
2023-02-02T03:41:42.861Z,19.50
2023-02-02T03:44:51.271Z,16.40
2023-02-02T03:48:46.401Z,21.20
2023-02-02T03:52:50.560Z,17.10
2023-02-02T03:56:43.008Z,12.50
2023-02-02T04:00:10.010Z,12.80
2023-02-02T04:04:17.037Z,14.10
2023-02-02T04:07:29.841Z,16.30
2023-02-02T04:11:16.414Z,9.90
2023-02-02T04:15:11.460Z,16.10
2023-02-02T04:19:06.454Z,12.90
2023-02-02T04:22:55.877Z,11.40
2023-02-02T04:26:10.045Z,17.10
2023-02-02T04:29:41.981Z,14.00
2023-02-02T04:33:26.022Z,18.80
2023-02-02T04:37:10.147Z,7.60
2023-02-02T04:41:04.063Z,8.40
2023-02-02T04:44:51.081Z,8.80
2023-02-02T04:48:34.948Z,10.30
2023-02-02T04:52:21.914Z,10.60
2023-02-02T04:56:26.905Z,5.40
2023-02-02T05:00:20.524Z,6.00
2023-02-02T05:04:13.482Z,5.00
2023-02-02T05:08:07.427Z,3.60
2023-02-02T05:11:51.592Z,3.60
2023-02-02T05:15:21.919Z,4.90
2023-02-02T05:19:30.056Z,5.70
2023-02-02T05:23:04.809Z,3.80
2023-02-02T05:26:42.133Z,2.50
2023-02-02T05:30:18.997Z,4.80
2023-02-02T05:33:26.224Z,2.70
2023-02-02T05:36:35.112Z,2.30
2023-02-02T05:40:01.596Z,2.90
2023-02-02T05:43:38.726Z,7.30
2023-02-02T05:46:22.307Z,2.30
2023-02-02T05:49:25.897Z,2.30
2023-02-02T05:53:19.726Z,2.30
2023-02-02T05:56:53.333Z,4.80
2023-02-02T06:00:29.764Z,2.60
2023-02-02T06:04:06.698Z,3.30
2023-02-02T06:07:30.872Z,6.60
2023-02-02T06:10:28.527Z,4.10
2023-02-02T06:14:21.511Z,7.40
2023-02-02T06:18:07.625Z,5.70
2023-02-02T06:21:51.623Z,2.70
2023-02-02T06:24:55.081Z,3.30
2023-02-02T06:27:56.506Z,6.40
2023-02-02T06:31:29.942Z,4.20
2023-02-02T06:34:53.784Z,4.60
2023-02-02T06:37:53.311Z,4.50
2023-02-02T06:41:10.287Z,5.40
2023-02-02T06:44:24.740Z,8.00
2023-02-02T06:47:34.159Z,5.60
2023-02-02T06:50:44.402Z,6.50
2023-02-02T06:53:39.553Z,6.00
2023-02-02T06:56:46.152Z,6.30
2023-02-02T07:00:32.884Z,6.70
2023-02-02T07:03:41.608Z,6.30
2023-02-02T07:06:56.140Z,6.60
2023-02-02T07:09:57.945Z,6.60
2023-02-02T07:12:51.219Z,9.30
2023-02-02T07:16:13.890Z,9.00
2023-02-02T07:19:18.136Z,6.10
2023-02-02T07:22:12.103Z,8.00
2023-02-02T07:25:28.530Z,9.70
2023-02-02T07:28:37.414Z,8.60
2023-02-02T07:32:01.855Z,5.50
2023-02-02T07:34:45.104Z,7.50
2023-02-02T07:37:40.081Z,6.90
2023-02-02T07:40:57.874Z,6.00
2023-02-02T07:44:33.301Z,8.20
2023-02-02T07:47:22.750Z,9.40
2023-02-02T07:50:47.123Z,7.20
2023-02-02T07:54:37.303Z,6.70
2023-02-02T07:57:34.735Z,6.80
2023-02-02T08:01:04.214Z,7.90
2023-02-02T08:04:45.527Z,4.30
2023-02-02T08:07:46.356Z,9.60
2023-02-02T08:10:55.770Z,10.50
2023-02-02T08:14:21.294Z,7.40
2023-02-02T08:17:50.507Z,5.10
2023-02-02T08:21:16.433Z,6.50
2023-02-02T08:24:33.752Z,8.30
2023-02-02T08:28:06.259Z,4.30
2023-02-02T08:31:43.317Z,6.10
2023-02-02T08:34:41.172Z,9.00
2023-02-02T08:38:05.662Z,4.80
2023-02-02T08:41:29.073Z,9.90
2023-02-02T08:46:07.704Z,8.10
2023-02-02T08:48:35.978Z,12.00
2023-02-02T08:51:41.875Z,10.30
2023-02-02T08:55:14.924Z,8.60
2023-02-02T08:58:41.929Z,8.30
2023-02-02T09:01:55.962Z,6.10
2023-02-02T09:05:26.150Z,5.20
2023-02-02T09:08:57.259Z,6.50
2023-02-02T09:12:33.587Z,9.90
2023-02-02T09:15:33.069Z,4.00
2023-02-02T09:18:26.151Z,6.20
2023-02-02T09:21:36.727Z,9.60
2023-02-02T09:24:40.065Z,8.60
2023-02-02T09:31:11.747Z,12.00
2023-02-02T09:34:25.405Z,6.10
2023-02-02T09:37:14.167Z,4.80
2023-02-02T09:40:27.377Z,5.00
2023-02-02T09:43:52.828Z,6.10
2023-02-02T09:47:12.680Z,3.50
2023-02-02T09:51:13.274Z,7.70
2023-02-02T09:58:08.948Z,6.70
2023-02-02T10:01:53.880Z,7.10
2023-02-02T10:05:31.125Z,2.80
2023-02-02T10:08:57.662Z,3.60
2023-02-02T10:12:06.171Z,7.40
2023-02-02T10:16:05.342Z,6.50
2023-02-02T10:19:15.025Z,4.40
2023-02-02T10:22:46.746Z,4.80
2023-02-02T10:26:31.954Z,5.60
2023-02-02T10:30:04.936Z,3.50
2023-02-02T10:33:17.755Z,3.60
2023-02-02T10:36:41.713Z,2.90
2023-02-02T10:40:12.556Z,6.10
2023-02-02T10:43:32.859Z,6.30
2023-02-02T10:46:52.712Z,5.70
2023-02-02T10:49:56.338Z,8.10
2023-02-02T10:52:49.011Z,4.80
2023-02-02T10:56:22.057Z,5.00
2023-02-02T10:59:44.447Z,6.30
2023-02-02T11:02:36.771Z,8.90
2023-02-02T11:06:13.510Z,6.10
2023-02-02T11:09:18.423Z,5.00
2023-02-02T11:12:47.617Z,6.60
2023-02-02T11:15:44.030Z,8.00
2023-02-02T11:18:56.574Z,6.20
2023-02-02T11:22:22.783Z,3.50
2023-02-02T11:25:43.563Z,2.50
2023-02-02T11:29:00.001Z,3.10
2023-02-02T11:32:16.130Z,2.40
2023-02-02T11:35:54.860Z,5.70
2023-02-02T11:39:03.297Z,2.90
2023-02-02T11:42:44.849Z,4.70
2023-02-02T11:46:36.770Z,2.70
2023-02-02T11:49:22.596Z,4.70
2023-02-02T11:52:27.288Z,4.10
2023-02-02T11:55:35.643Z,2.50
2023-02-02T11:58:57.049Z,4.50
2023-02-02T12:02:27.619Z,2.40
2023-02-02T12:06:37.718Z,1.40
2023-02-02T12:10:01.786Z,2.90
2023-02-02T12:13:29.819Z,1.90
2023-02-02T12:16:56.896Z,5.50
2023-02-02T12:20:44.582Z,10.30
2023-02-02T12:23:59.508Z,4.80
2023-02-02T12:27:18.152Z,3.10
2023-02-02T12:30:59.211Z,3.70
2023-02-02T12:35:01.004Z,4.70
2023-02-02T12:39:09.425Z,5.50
2023-02-02T12:43:01.764Z,5.60
2023-02-02T12:46:42.865Z,5.90
2023-02-02T12:50:11.216Z,2.10
2023-02-02T12:53:37.774Z,1.10
2023-02-02T12:57:24.097Z,2.70
2023-02-02T13:01:23.573Z,2.70
2023-02-02T13:08:52.361Z,4.60
2023-02-02T13:12:26.767Z,2.70
2023-02-02T13:15:36.278Z,5.00
2023-02-02T13:18:48.656Z,7.60
2023-02-02T13:22:14.152Z,5.70
2023-02-02T13:25:27.850Z,4.10
2023-02-02T13:28:48.351Z,4.70
2023-02-02T13:32:55.550Z,3.90
2023-02-02T13:36:57.317Z,4.90
2023-02-02T13:40:47.370Z,5.60
2023-02-02T13:43:55.130Z,3.00
2023-02-02T13:47:39.116Z,4.90
2023-02-02T13:50:46.667Z,2.60
2023-02-02T13:54:09.189Z,4.10
2023-02-02T13:57:53.087Z,3.20
2023-02-02T14:01:13.604Z,4.20
2023-02-02T14:04:36.533Z,3.30
2023-02-02T14:08:43.877Z,6.50
2023-02-02T14:12:10.131Z,2.40
2023-02-02T14:15:38.207Z,1.60
2023-02-02T14:18:56.341Z,2.20
2023-02-02T14:22:22.689Z,2.20
2023-02-02T14:25:57.874Z,5.30
2023-02-02T14:29:24.355Z,7.80
2023-02-02T14:32:52.258Z,4.40
2023-02-02T14:36:13.584Z,3.70
2023-02-02T14:39:30.264Z,5.10
2023-02-02T14:42:53.584Z,3.00
2023-02-02T14:46:34.000Z,7.40
2023-02-02T14:49:58.023Z,7.80
2023-02-02T14:53:06.965Z,3.40
2023-02-02T14:56:22.652Z,4.30
2023-02-02T14:59:33.425Z,7.30
2023-02-02T15:03:01.125Z,4.70
2023-02-02T15:06:11.403Z,4.30
2023-02-02T15:09:36.688Z,6.90
2023-02-02T15:12:55.499Z,10.00
2023-02-02T15:16:26.427Z,7.50
2023-02-02T15:19:48.507Z,4.70
2023-02-02T15:23:10.141Z,5.20
2023-02-02T15:26:16.996Z,7.10
2023-02-02T15:29:49.865Z,3.70
2023-02-02T15:32:48.929Z,4.20
2023-02-02T15:36:12.959Z,7.50
2023-02-02T15:40:15.829Z,8.40
2023-02-02T15:43:54.786Z,7.20
2023-02-02T15:47:25.533Z,10.10
2023-02-02T15:50:47.856Z,10.70
2023-02-02T15:53:54.885Z,9.60
2023-02-02T15:58:01.470Z,1.80
2023-02-02T16:02:00.290Z,5.10
2023-02-02T16:05:53.084Z,5.10
2023-02-02T16:08:49.185Z,9.20
2023-02-02T16:12:17.119Z,8.70
2023-02-02T16:15:56.331Z,7.30
2023-02-02T16:19:30.490Z,10.20
2023-02-02T16:23:08.469Z,6.60
2023-02-02T16:26:27.628Z,7.60
2023-02-02T16:30:03.393Z,6.10
2023-02-02T16:33:53.998Z,8.30
2023-02-02T16:37:20.291Z,8.60
2023-02-02T16:41:26.935Z,10.00
2023-02-02T16:45:33.978Z,8.90
2023-02-02T16:49:11.416Z,12.80
2023-02-02T16:52:57.452Z,10.40
2023-02-02T16:56:40.088Z,11.00
2023-02-02T17:00:22.914Z,10.50
2023-02-02T17:04:02.289Z,7.90
2023-02-02T17:07:25.858Z,9.00
2023-02-02T17:10:35.008Z,12.70
2023-02-02T17:13:57.913Z,17.10
2023-02-02T17:17:33.813Z,11.80
2023-02-02T17:21:06.605Z,10.80
2023-02-02T17:28:19.701Z,8.60
2023-02-02T17:31:29.107Z,12.10
2023-02-02T17:35:13.293Z,12.00
2023-02-02T17:38:46.102Z,10.40
2023-02-02T17:42:09.762Z,7.40
2023-02-02T17:46:03.090Z,8.70
2023-02-02T17:49:52.281Z,9.90
2023-02-02T17:52:55.899Z,12.80
2023-02-02T17:56:48.817Z,13.00
2023-02-02T18:00:31.434Z,6.50
2023-02-02T18:04:07.315Z,11.00
2023-02-02T18:07:02.599Z,11.10
2023-02-02T18:10:38.218Z,10.70
2023-02-02T18:13:46.812Z,6.90
2023-02-02T18:17:01.199Z,9.40
2023-02-02T18:19:56.755Z,13.60
2023-02-02T18:23:17.221Z,10.30
2023-02-02T18:26:50.079Z,8.30
2023-02-02T18:30:11.411Z,7.60
2023-02-02T18:33:40.330Z,7.30
2023-02-02T18:36:56.734Z,5.60
2023-02-02T18:40:08.003Z,3.80
2023-02-02T18:43:15.226Z,5.90
2023-02-02T18:47:01.568Z,9.50
2023-02-02T18:50:24.387Z,9.60
2023-02-02T18:54:00.049Z,9.30
2023-02-02T18:57:43.771Z,22.80
2023-02-02T19:04:44.138Z,11.30
2023-02-02T19:08:16.646Z,9.60
2023-02-02T19:12:10.647Z,8.60
2023-02-02T19:18:34.399Z,10.10
2023-02-02T19:22:18.473Z,11.50
2023-02-02T19:25:29.434Z,10.10
2023-02-02T19:29:11.217Z,10.70
2023-02-02T19:32:32.661Z,10.70
2023-02-02T19:36:25.589Z,14.90
2023-02-02T19:40:12.439Z,10.70
2023-02-02T19:43:57.095Z,9.80
2023-02-02T19:47:33.895Z,16.00
2023-02-02T19:51:07.818Z,13.00
2023-02-02T19:54:38.489Z,13.70
2023-02-02T19:58:11.813Z,17.50
2023-02-02T20:02:05.567Z,13.40
2023-02-02T20:05:51.347Z,15.80
2023-02-02T20:09:12.942Z,12.40
2023-02-02T20:12:59.050Z,13.40
2023-02-02T20:16:15.899Z,13.00
2023-02-02T20:19:37.888Z,11.30
2023-02-02T20:23:10.130Z,12.50
2023-02-02T20:27:13.521Z,10.50
2023-02-02T20:31:09.224Z,14.00
2023-02-02T20:35:11.828Z,9.80
2023-02-02T20:38:49.859Z,12.90
2023-02-02T20:42:56.791Z,15.50
2023-02-02T20:46:40.805Z,16.90
2023-02-02T20:50:35.859Z,15.80
2023-02-02T20:54:16.901Z,14.70
2023-02-02T20:57:58.108Z,15.60
2023-02-02T21:01:38.809Z,22.70
2023-02-02T21:05:26.882Z,19.80
2023-02-02T21:08:45.395Z,21.90
2023-02-02T21:12:08.670Z,22.10
2023-02-02T21:15:37.472Z,20.80
2023-02-02T21:19:02.266Z,19.20
2023-02-02T21:22:48.385Z,17.30
2023-02-02T21:26:33.299Z,19.40
2023-02-02T21:30:21.239Z,23.10
2023-02-02T21:34:17.684Z,20.80
2023-02-02T21:37:53.502Z,23.00
2023-02-02T21:41:28.363Z,22.50
2023-02-02T21:45:07.961Z,26.90
2023-02-02T21:49:20.018Z,21.30
2023-02-02T21:53:02.579Z,19.80
2023-02-02T21:56:26.452Z,24.70
2023-02-02T21:59:38.909Z,15.90
2023-02-02T22:03:32.676Z,18.70
2023-02-02T22:07:42.402Z,20.50
2023-02-02T22:11:33.758Z,23.40
2023-02-02T22:15:30.707Z,28.10
2023-02-02T22:19:13.306Z,20.90
2023-02-02T22:22:54.278Z,23.30
2023-02-02T22:25:58.345Z,21.80
2023-02-02T22:29:44.684Z,21.00
2023-02-02T22:32:51.428Z,18.80
2023-02-02T22:36:29.449Z,23.60
2023-02-02T22:39:44.417Z,18.80
2023-02-02T22:43:28.581Z,17.90
2023-02-02T22:46:48.843Z,19.00
2023-02-02T22:50:42.622Z,23.00
2023-02-02T22:54:10.441Z,21.10
2023-02-02T22:57:37.383Z,17.50
2023-02-02T23:00:52.102Z,21.40
2023-02-02T23:04:02.473Z,20.80
2023-02-02T23:07:18.851Z,22.60
2023-02-02T23:10:35.927Z,16.70
2023-02-02T23:14:10.894Z,24.10
2023-02-02T23:17:44.067Z,20.20
2023-02-02T23:20:55.028Z,19.70
2023-02-02T23:24:15.813Z,24.80
2023-02-02T23:27:54.923Z,26.10
2023-02-02T23:30:59.330Z,23.90
2023-02-02T23:34:26.655Z,22.60
2023-02-02T23:38:03.560Z,23.20
2023-02-02T23:41:29.913Z,24.70
2023-02-02T23:45:22.589Z,21.90
2023-02-02T23:49:05.717Z,22.90
2023-02-02T23:53:02.162Z,19.50
2023-02-02T23:56:10.068Z,21.00
2023-02-02T23:59:50.255Z,20.50
